Terminal Aerodrome Forecast
Issued by NWS Central Illinois

Home | Current Version | Previous Version | Text Only | Print | Product List | Glossary On
Versions: 1 2 3 4 5 6 7 8 9 10 11 12 13 14 15 16 17 18
000
FTUS43 KILX 041720
TAFPIA
TAF
KPIA 041720Z 0418/0518 VRB04KT P6SM SCT040
      TEMPO 0418/0420 BKN040
     FM050100 VRB01KT P6SM SCT250
     FM050700 15003KT 4SM BR SCT250
     FM051300 17004KT 6SM HZ SCT250
     FM051500 18006KT P6SM SCT035=

USA.gov is the U.S. government's official web portal to all federal, state and local government web resources and services.